Terminal Aerodrome Forecast
Issued by NWS Hastings, NE

Home | Current Version | Previous Version | Text Only | Print | Product List | Glossary On
Versions: 1 2 3 4 5 6 7 8 9 10 11 12 13 14 15 16 17 18 19 20 21 22 23 24 25 26 27 28 29 30 31 32 33 34 35 36 37 38
000
FTUS43 KGID 120520
TAFGRI
TAF
KGRI 120520Z 1206/1306 32009KT 6SM BR BKN014
     FM120700 33010KT 3SM BR BKN008
     FM121500 36008KT P6SM OVC008
     FM122000 01010KT P6SM OVC015
     FM122200 02010KT P6SM OVC035
     FM130100 07009KT P6SM OVC040=

USA.gov is the U.S. government's official web portal to all federal, state and local government web resources and services.